sensor_id;sensor_type;location;lat;lon;timestamp;temperature;humidity
26342;DHT22;14054;50.108;8.640;2023-02-03T00:02:02;7.80;99.90
26342;DHT22;14054;50.108;8.640;2023-02-03T00:04:27;7.80;99.90
26342;DHT22;14054;50.108;8.640;2023-02-03T00:06:53;7.80;99.90
26342;DHT22;14054;50.108;8.640;2023-02-03T00:09:19;7.80;99.90
26342;DHT22;14054;50.108;8.640;2023-02-03T00:11:44;7.70;99.90
26342;DHT22;14054;50.108;8.640;2023-02-03T00:14:10;7.70;99.90
26342;DHT22;14054;50.108;8.640;2023-02-03T00:16:35;7.70;99.90
26342;DHT22;14054;50.108;8.640;2023-02-03T00:19:01;7.70;99.90
26342;DHT22;14054;50.108;8.640;2023-02-03T00:21:27;7.70;99.90
26342;DHT22;14054;50.108;8.640;2023-02-03T00:23:52;7.70;99.90
26342;DHT22;14054;50.108;8.640;2023-02-03T00:26:19;7.70;99.90
26342;DHT22;14054;50.108;8.640;2023-02-03T00:28:44;7.70;99.90
26342;DHT22;14054;50.108;8.640;2023-02-03T00:31:21;7.70;99.90
26342;DHT22;14054;50.108;8.640;2023-02-03T00:33:55;7.80;99.90
26342;DHT22;14054;50.108;8.640;2023-02-03T00:36:22;7.80;99.90
26342;DHT22;14054;50.108;8.640;2023-02-03T00:38:47;7.80;99.90
26342;DHT22;14054;50.108;8.640;2023-02-03T00:41:14;7.80;99.90
26342;DHT22;14054;50.108;8.640;2023-02-03T00:43:40;7.90;99.90
26342;DHT22;14054;50.108;8.640;2023-02-03T00:46:06;7.90;99.90
26342;DHT22;14054;50.108;8.640;2023-02-03T00:48:31;7.90;99.90
26342;DHT22;14054;50.108;8.640;2023-02-03T00:50:56;7.90;99.90
26342;DHT22;14054;50.108;8.640;2023-02-03T00:53:22;7.90;99.90
26342;DHT22;14054;50.108;8.640;2023-02-03T00:55:47;7.80;99.90
26342;DHT22;14054;50.108;8.640;2023-02-03T00:58:13;7.90;99.90
26342;DHT22;14054;50.108;8.640;2023-02-03T01:00:38;7.80;99.90
26342;DHT22;14054;50.108;8.640;2023-02-03T01:03:04;7.80;99.90
26342;DHT22;14054;50.108;8.640;2023-02-03T01:05:29;7.80;99.90
26342;DHT22;14054;50.108;8.640;2023-02-03T01:07:55;7.70;99.90
26342;DHT22;14054;50.108;8.640;2023-02-03T01:10:20;7.70;99.90
26342;DHT22;14054;50.108;8.640;2023-02-03T01:12:46;7.70;99.90
26342;DHT22;14054;50.108;8.640;2023-02-03T01:15:12;7.70;99.90
26342;DHT22;14054;50.108;8.640;2023-02-03T01:17:37;7.70;99.90
26342;DHT22;14054;50.108;8.640;2023-02-03T01:20:03;7.70;99.90
26342;DHT22;14054;50.108;8.640;2023-02-03T01:22:29;7.70;99.90
26342;DHT22;14054;50.108;8.640;2023-02-03T01:24:55;7.70;99.90
26342;DHT22;14054;50.108;8.640;2023-02-03T01:27:20;7.70;99.90
26342;DHT22;14054;50.108;8.640;2023-02-03T01:29:46;7.70;99.90
26342;DHT22;14054;50.108;8.640;2023-02-03T01:32:11;7.70;99.90
26342;DHT22;14054;50.108;8.640;2023-02-03T01:34:37;7.70;99.90
26342;DHT22;14054;50.108;8.640;2023-02-03T01:37:02;7.70;99.90
26342;DHT22;14054;50.108;8.640;2023-02-03T01:39:28;7.70;99.90
26342;DHT22;14054;50.108;8.640;2023-02-03T01:41:54;7.70;99.90
26342;DHT22;14054;50.108;8.640;2023-02-03T01:44:48;7.70;99.90
26342;DHT22;14054;50.108;8.640;2023-02-03T01:47:19;7.70;99.90
26342;DHT22;14054;50.108;8.640;2023-02-03T01:49:51;7.80;99.90
26342;DHT22;14054;50.108;8.640;2023-02-03T01:52:19;7.80;99.90
26342;DHT22;14054;50.108;8.640;2023-02-03T01:54:47;7.90;99.90
26342;DHT22;14054;50.108;8.640;2023-02-03T01:57:20;7.80;99.90
26342;DHT22;14054;50.108;8.640;2023-02-03T01:59:53;7.90;99.90
26342;DHT22;14054;50.108;8.640;2023-02-03T02:02:20;7.80;99.90
26342;DHT22;14054;50.108;8.640;2023-02-03T02:05:06;7.90;99.90
26342;DHT22;14054;50.108;8.640;2023-02-03T02:07:35;7.90;99.90
26342;DHT22;14054;50.108;8.640;2023-02-03T02:10:02;7.80;99.90
26342;DHT22;14054;50.108;8.640;2023-02-03T02:12:28;7.80;99.90
26342;DHT22;14054;50.108;8.640;2023-02-03T02:14:53;7.80;99.90
26342;DHT22;14054;50.108;8.640;2023-02-03T02:17:38;7.80;99.90
26342;DHT22;14054;50.108;8.640;2023-02-03T02:20:29;7.80;99.90
26342;DHT22;14054;50.108;8.640;2023-02-03T02:28:57;7.80;99.90
26342;DHT22;14054;50.108;8.640;2023-02-03T02:34:43;7.80;99.90
26342;DHT22;14054;50.108;8.640;2023-02-03T02:37:21;7.80;99.90
26342;DHT22;14054;50.108;8.640;2023-02-03T02:39:57;7.80;99.90
26342;DHT22;14054;50.108;8.640;2023-02-03T02:45:06;7.80;99.90
26342;DHT22;14054;50.108;8.640;2023-02-03T02:47:33;7.80;99.90
26342;DHT22;14054;50.108;8.640;2023-02-03T02:50:23;7.80;99.90
26342;DHT22;14054;50.108;8.640;2023-02-03T02:52:49;7.80;99.90
26342;DHT22;14054;50.108;8.640;2023-02-03T02:55:30;7.80;99.90
26342;DHT22;14054;50.108;8.640;2023-02-03T02:58:01;7.80;99.90
26342;DHT22;14054;50.108;8.640;2023-02-03T03:00:33;7.80;99.90
26342;DHT22;14054;50.108;8.640;2023-02-03T03:03:20;7.90;99.90
26342;DHT22;14054;50.108;8.640;2023-02-03T03:05:54;7.90;99.90
26342;DHT22;14054;50.108;8.640;2023-02-03T03:08:24;7.90;99.90
26342;DHT22;14054;50.108;8.640;2023-02-03T03:10:52;7.90;99.90
26342;DHT22;14054;50.108;8.640;2023-02-03T03:13:23;7.90;99.90
26342;DHT22;14054;50.108;8.640;2023-02-03T03:15:54;7.90;99.90
26342;DHT22;14054;50.108;8.640;2023-02-03T03:18:33;7.90;99.90
26342;DHT22;14054;50.108;8.640;2023-02-03T03:21:01;7.90;99.90
26342;DHT22;14054;50.108;8.640;2023-02-03T03:23:34;7.90;99.90
26342;DHT22;14054;50.108;8.640;2023-02-03T03:26:16;7.90;99.90
26342;DHT22;14054;50.108;8.640;2023-02-03T03:28:50;7.90;99.90
26342;DHT22;14054;50.108;8.640;2023-02-03T03:31:18;7.90;99.90
26342;DHT22;14054;50.108;8.640;2023-02-03T03:33:45;7.80;99.90
26342;DHT22;14054;50.108;8.640;2023-02-03T03:36:22;7.80;99.90
26342;DHT22;14054;50.108;8.640;2023-02-03T03:41:37;7.70;99.90
26342;DHT22;14054;50.108;8.640;2023-02-03T03:44:07;7.70;99.90
26342;DHT22;14054;50.108;8.640;2023-02-03T03:46:42;7.70;99.90
26342;DHT22;14054;50.108;8.640;2023-02-03T03:49:10;7.70;99.90
26342;DHT22;14054;50.108;8.640;2023-02-03T03:51:43;7.70;99.90
26342;DHT22;14054;50.108;8.640;2023-02-03T03:54:13;7.70;99.90
26342;DHT22;14054;50.108;8.640;2023-02-03T03:59:19;7.70;99.90
26342;DHT22;14054;50.108;8.640;2023-02-03T04:01:46;7.80;99.90
26342;DHT22;14054;50.108;8.640;2023-02-03T04:04:13;7.80;99.90
26342;DHT22;14054;50.108;8.640;2023-02-03T04:06:40;7.80;99.90
26342;DHT22;14054;50.108;8.640;2023-02-03T04:09:06;7.80;99.90
26342;DHT22;14054;50.108;8.640;2023-02-03T04:11:31;7.80;99.90
26342;DHT22;14054;50.108;8.640;2023-02-03T04:14:16;7.80;99.90
26342;DHT22;14054;50.108;8.640;2023-02-03T04:16:42;7.80;99.90
26342;DHT22;14054;50.108;8.640;2023-02-03T04:19:07;7.80;99.90
26342;DHT22;14054;50.108;8.640;2023-02-03T04:21:33;7.90;99.90
26342;DHT22;14054;50.108;8.640;2023-02-03T04:23:58;7.90;99.90
26342;DHT22;14054;50.108;8.640;2023-02-03T04:26:24;7.90;99.90
26342;DHT22;14054;50.108;8.640;2023-02-03T04:28:49;7.80;99.90
26342;DHT22;14054;50.108;8.640;2023-02-03T04:31:15;7.90;99.90
26342;DHT22;14054;50.108;8.640;2023-02-03T04:33:41;7.90;99.90
26342;DHT22;14054;50.108;8.640;2023-02-03T04:36:07;7.80;99.90
26342;DHT22;14054;50.108;8.640;2023-02-03T04:38:32;7.80;99.90
26342;DHT22;14054;50.108;8.640;2023-02-03T04:40:58;7.80;99.90
26342;DHT22;14054;50.108;8.640;2023-02-03T04:43:23;7.80;99.90
26342;DHT22;14054;50.108;8.640;2023-02-03T04:45:49;7.70;99.90
26342;DHT22;14054;50.108;8.640;2023-02-03T04:48:15;7.70;99.90
26342;DHT22;14054;50.108;8.640;2023-02-03T04:50:40;7.70;99.90
26342;DHT22;14054;50.108;8.640;2023-02-03T04:53:06;7.70;99.90
26342;DHT22;14054;50.108;8.640;2023-02-03T04:55:31;7.70;99.90
26342;DHT22;14054;50.108;8.640;2023-02-03T04:57:58;7.70;99.90
26342;DHT22;14054;50.108;8.640;2023-02-03T05:00:24;7.60;99.90
26342;DHT22;14054;50.108;8.640;2023-02-03T05:02:50;7.60;99.90
26342;DHT22;14054;50.108;8.640;2023-02-03T05:05:16;7.50;99.90
26342;DHT22;14054;50.108;8.640;2023-02-03T05:07:42;7.50;99.90
26342;DHT22;14054;50.108;8.640;2023-02-03T05:10:08;7.40;99.90
26342;DHT22;14054;50.108;8.640;2023-02-03T05:12:33;7.40;99.90
26342;DHT22;14054;50.108;8.640;2023-02-03T05:14:59;7.40;99.90
26342;DHT22;14054;50.108;8.640;2023-02-03T05:17:24;7.40;99.90
26342;DHT22;14054;50.108;8.640;2023-02-03T05:19:50;7.40;99.90
26342;DHT22;14054;50.108;8.640;2023-02-03T05:22:15;7.40;99.90
26342;DHT22;14054;50.108;8.640;2023-02-03T05:24:41;7.40;99.90
26342;DHT22;14054;50.108;8.640;2023-02-03T05:27:06;7.40;99.90
26342;DHT22;14054;50.108;8.640;2023-02-03T05:29:31;7.50;99.90
26342;DHT22;14054;50.108;8.640;2023-02-03T05:31:57;7.50;99.90
26342;DHT22;14054;50.108;8.640;2023-02-03T05:34:22;7.50;99.90
26342;DHT22;14054;50.108;8.640;2023-02-03T05:36:48;7.50;99.90
26342;DHT22;14054;50.108;8.640;2023-02-03T05:39:13;7.50;99.90
26342;DHT22;14054;50.108;8.640;2023-02-03T05:41:39;7.60;99.90
26342;DHT22;14054;50.108;8.640;2023-02-03T05:44:20;7.70;99.90
26342;DHT22;14054;50.108;8.640;2023-02-03T05:46:46;7.70;99.90
26342;DHT22;14054;50.108;8.640;2023-02-03T05:49:11;7.70;99.90
26342;DHT22;14054;50.108;8.640;2023-02-03T05:51:37;7.70;99.90
26342;DHT22;14054;50.108;8.640;2023-02-03T05:54:05;7.80;99.90
26342;DHT22;14054;50.108;8.640;2023-02-03T05:56:30;7.70;99.90
26342;DHT22;14054;50.108;8.640;2023-02-03T05:58:56;7.70;99.90
26342;DHT22;14054;50.108;8.640;2023-02-03T06:01:21;7.80;99.90
26342;DHT22;14054;50.108;8.640;2023-02-03T06:03:47;7.70;99.90
26342;DHT22;14054;50.108;8.640;2023-02-03T06:06:13;7.70;99.90
26342;DHT22;14054;50.108;8.640;2023-02-03T06:08:38;7.70;99.90
26342;DHT22;14054;50.108;8.640;2023-02-03T06:11:04;7.70;99.90
26342;DHT22;14054;50.108;8.640;2023-02-03T06:13:29;7.70;99.90
26342;DHT22;14054;50.108;8.640;2023-02-03T06:15:55;7.70;99.90
26342;DHT22;14054;50.108;8.640;2023-02-03T06:18:21;7.70;99.90
26342;DHT22;14054;50.108;8.640;2023-02-03T06:20:46;7.80;99.90
26342;DHT22;14054;50.108;8.640;2023-02-03T06:23:12;7.80;99.90
26342;DHT22;14054;50.108;8.640;2023-02-03T06:25:38;7.90;99.90
26342;DHT22;14054;50.108;8.640;2023-02-03T06:28:03;7.90;99.90
26342;DHT22;14054;50.108;8.640;2023-02-03T06:30:29;7.90;99.90
26342;DHT22;14054;50.108;8.640;2023-02-03T06:32:54;7.90;99.90
26342;DHT22;14054;50.108;8.640;2023-02-03T06:35:20;7.90;99.90
26342;DHT22;14054;50.108;8.640;2023-02-03T06:37:45;8.00;99.90
26342;DHT22;14054;50.108;8.640;2023-02-03T06:40:11;7.90;99.90
26342;DHT22;14054;50.108;8.640;2023-02-03T06:42:37;8.00;99.90
26342;DHT22;14054;50.108;8.640;2023-02-03T06:45:03;7.90;99.90
26342;DHT22;14054;50.108;8.640;2023-02-03T06:47:28;7.90;99.90
26342;DHT22;14054;50.108;8.640;2023-02-03T06:49:54;7.90;99.90
26342;DHT22;14054;50.108;8.640;2023-02-03T06:52:19;7.90;99.90
26342;DHT22;14054;50.108;8.640;2023-02-03T06:54:45;7.90;99.90
26342;DHT22;14054;50.108;8.640;2023-02-03T06:57:10;7.90;99.90
26342;DHT22;14054;50.108;8.640;2023-02-03T06:59:36;7.90;99.90
26342;DHT22;14054;50.108;8.640;2023-02-03T07:02:01;7.90;99.90
26342;DHT22;14054;50.108;8.640;2023-02-03T07:04:27;7.90;99.90
26342;DHT22;14054;50.108;8.640;2023-02-03T07:06:57;7.90;99.90
26342;DHT22;14054;50.108;8.640;2023-02-03T07:09:24;7.90;99.90
26342;DHT22;14054;50.108;8.640;2023-02-03T07:11:49;7.90;99.90
26342;DHT22;14054;50.108;8.640;2023-02-03T07:14:15;7.90;99.90
26342;DHT22;14054;50.108;8.640;2023-02-03T07:16:40;7.90;99.90
26342;DHT22;14054;50.108;8.640;2023-02-03T07:19:06;7.90;99.90
26342;DHT22;14054;50.108;8.640;2023-02-03T07:21:31;7.90;99.90
26342;DHT22;14054;50.108;8.640;2023-02-03T07:23:57;8.00;99.90
26342;DHT22;14054;50.108;8.640;2023-02-03T07:26:22;8.10;99.90
26342;DHT22;14054;50.108;8.640;2023-02-03T07:28:49;8.00;99.90
26342;DHT22;14054;50.108;8.640;2023-02-03T07:31:16;8.10;99.90
26342;DHT22;14054;50.108;8.640;2023-02-03T07:33:42;8.10;99.90
26342;DHT22;14054;50.108;8.640;2023-02-03T07:36:09;8.10;99.90
26342;DHT22;14054;50.108;8.640;2023-02-03T07:38:35;8.20;99.90
26342;DHT22;14054;50.108;8.640;2023-02-03T07:41:02;8.20;99.90
26342;DHT22;14054;50.108;8.640;2023-02-03T07:43:28;8.20;99.90
26342;DHT22;14054;50.108;8.640;2023-02-03T07:45:53;8.20;99.90
26342;DHT22;14054;50.108;8.640;2023-02-03T07:48:19;8.30;99.90
26342;DHT22;14054;50.108;8.640;2023-02-03T07:50:47;8.30;99.90
26342;DHT22;14054;50.108;8.640;2023-02-03T07:53:13;8.30;99.90
26342;DHT22;14054;50.108;8.640;2023-02-03T07:55:39;8.40;99.90
26342;DHT22;14054;50.108;8.640;2023-02-03T07:58:05;8.40;99.90
26342;DHT22;14054;50.108;8.640;2023-02-03T08:00:31;8.40;99.90
26342;DHT22;14054;50.108;8.640;2023-02-03T08:02:56;8.40;99.90
26342;DHT22;14054;50.108;8.640;2023-02-03T08:05:22;8.50;99.90
26342;DHT22;14054;50.108;8.640;2023-02-03T08:07:47;8.50;99.90
26342;DHT22;14054;50.108;8.640;2023-02-03T08:10:14;8.50;99.90
26342;DHT22;14054;50.108;8.640;2023-02-03T08:12:41;8.50;99.90
26342;DHT22;14054;50.108;8.640;2023-02-03T08:15:09;8.50;99.90
26342;DHT22;14054;50.108;8.640;2023-02-03T08:17:35;8.60;99.90
26342;DHT22;14054;50.108;8.640;2023-02-03T08:20:03;8.60;99.90
26342;DHT22;14054;50.108;8.640;2023-02-03T08:22:28;8.60;99.90
26342;DHT22;14054;50.108;8.640;2023-02-03T08:24:54;8.60;99.90
26342;DHT22;14054;50.108;8.640;2023-02-03T08:27:21;8.60;99.90
26342;DHT22;14054;50.108;8.640;2023-02-03T08:29:47;8.60;99.90
26342;DHT22;14054;50.108;8.640;2023-02-03T08:32:15;8.70;99.90
26342;DHT22;14054;50.108;8.640;2023-02-03T08:34:41;8.70;99.90
26342;DHT22;14054;50.108;8.640;2023-02-03T08:37:07;8.70;99.90
26342;DHT22;14054;50.108;8.640;2023-02-03T08:39:33;8.80;99.90
26342;DHT22;14054;50.108;8.640;2023-02-03T08:42:00;8.80;99.90
26342;DHT22;14054;50.108;8.640;2023-02-03T08:44:25;8.80;99.90
26342;DHT22;14054;50.108;8.640;2023-02-03T08:46:52;8.80;99.90
26342;DHT22;14054;50.108;8.640;2023-02-03T08:49:18;8.90;99.90
26342;DHT22;14054;50.108;8.640;2023-02-03T08:51:46;8.90;99.90
26342;DHT22;14054;50.108;8.640;2023-02-03T08:54:11;9.00;99.90
26342;DHT22;14054;50.108;8.640;2023-02-03T08:56:38;9.10;99.90
26342;DHT22;14054;50.108;8.640;2023-02-03T08:59:03;9.10;99.90
26342;DHT22;14054;50.108;8.640;2023-02-03T09:01:29;9.20;99.90
26342;DHT22;14054;50.108;8.640;2023-02-03T09:03:55;9.20;99.90
26342;DHT22;14054;50.108;8.640;2023-02-03T09:06:20;9.20;99.90
26342;DHT22;14054;50.108;8.640;2023-02-03T09:08:47;9.30;99.90
26342;DHT22;14054;50.108;8.640;2023-02-03T09:11:15;11.00;99.90
26342;DHT22;14054;50.108;8.640;2023-02-03T09:13:41;9.40;99.90
26342;DHT22;14054;50.108;8.640;2023-02-03T09:16:11;9.40;99.90
26342;DHT22;14054;50.108;8.640;2023-02-03T09:18:37;9.40;99.90
26342;DHT22;14054;50.108;8.640;2023-02-03T09:21:05;9.40;99.90
26342;DHT22;14054;50.108;8.640;2023-02-03T09:23:31;9.40;99.90
26342;DHT22;14054;50.108;8.640;2023-02-03T09:26:04;9.40;99.90
26342;DHT22;14054;50.108;8.640;2023-02-03T09:28:30;9.40;99.90
26342;DHT22;14054;50.108;8.640;2023-02-03T09:31:03;9.40;99.90
26342;DHT22;14054;50.108;8.640;2023-02-03T09:33:29;9.40;99.90
26342;DHT22;14054;50.108;8.640;2023-02-03T09:35:55;9.40;99.90
26342;DHT22;14054;50.108;8.640;2023-02-03T09:38:22;9.40;99.90
26342;DHT22;14054;50.108;8.640;2023-02-03T09:40:54;9.50;99.90
26342;DHT22;14054;50.108;8.640;2023-02-03T09:44:23;9.50;99.90
26342;DHT22;14054;50.108;8.640;2023-02-03T09:46:33;9.60;99.90
26342;DHT22;14054;50.108;8.640;2023-02-03T09:49:35;9.60;99.90
26342;DHT22;14054;50.108;8.640;2023-02-03T09:52:14;9.70;99.90
26342;DHT22;14054;50.108;8.640;2023-02-03T09:55:33;9.70;99.90
26342;DHT22;14054;50.108;8.640;2023-02-03T09:58:04;9.80;99.90
26342;DHT22;14054;50.108;8.640;2023-02-03T10:06:05;9.70;99.90
26342;DHT22;14054;50.108;8.640;2023-02-03T10:14:08;9.60;99.90
26342;DHT22;14054;50.108;8.640;2023-02-03T10:19:41;9.60;99.90
26342;DHT22;14054;50.108;8.640;2023-02-03T10:22:10;9.60;99.90
26342;DHT22;14054;50.108;8.640;2023-02-03T10:24:51;9.70;99.90
26342;DHT22;14054;50.108;8.640;2023-02-03T10:27:21;9.70;99.90
26342;DHT22;14054;50.108;8.640;2023-02-03T10:30:05;9.70;99.90
26342;DHT22;14054;50.108;8.640;2023-02-03T10:32:34;9.70;99.90
26342;DHT22;14054;50.108;8.640;2023-02-03T10:35:01;9.70;99.90
26342;DHT22;14054;50.108;8.640;2023-02-03T10:37:33;9.70;99.90
26342;DHT22;14054;50.108;8.640;2023-02-03T10:40:03;9.60;99.90
26342;DHT22;14054;50.108;8.640;2023-02-03T10:42:30;9.70;99.90
26342;DHT22;14054;50.108;8.640;2023-02-03T10:45:17;9.70;99.90
26342;DHT22;14054;50.108;8.640;2023-02-03T10:47:47;9.60;99.90
26342;DHT22;14054;50.108;8.640;2023-02-03T10:50:17;9.70;99.90
26342;DHT22;14054;50.108;8.640;2023-02-03T10:52:43;9.70;99.90
26342;DHT22;14054;50.108;8.640;2023-02-03T10:57:50;9.70;99.90
26342;DHT22;14054;50.108;8.640;2023-02-03T11:00:22;9.60;99.90
26342;DHT22;14054;50.108;8.640;2023-02-03T11:03:06;9.70;99.90
26342;DHT22;14054;50.108;8.640;2023-02-03T11:05:32;9.70;99.90
26342;DHT22;14054;50.108;8.640;2023-02-03T11:07:58;9.80;99.90
26342;DHT22;14054;50.108;8.640;2023-02-03T11:13:16;9.80;99.90
26342;DHT22;14054;50.108;8.640;2023-02-03T11:15:56;9.80;99.90
26342;DHT22;14054;50.108;8.640;2023-02-03T11:21:09;9.90;99.90
26342;DHT22;14054;50.108;8.640;2023-02-03T11:23:37;9.90;99.90
26342;DHT22;14054;50.108;8.640;2023-02-03T11:26:11;9.90;99.90
26342;DHT22;14054;50.108;8.640;2023-02-03T11:28:41;9.90;99.90
26342;DHT22;14054;50.108;8.640;2023-02-03T11:31:19;9.80;99.90
26342;DHT22;14054;50.108;8.640;2023-02-03T11:33:55;9.80;99.90
26342;DHT22;14054;50.108;8.640;2023-02-03T11:36:21;9.80;99.90
26342;DHT22;14054;50.108;8.640;2023-02-03T11:38:46;9.80;99.90
26342;DHT22;14054;50.108;8.640;2023-02-03T11:41:18;9.80;99.90
26342;DHT22;14054;50.108;8.640;2023-02-03T11:43:45;9.80;99.90
26342;DHT22;14054;50.108;8.640;2023-02-03T11:46:11;9.80;99.90
26342;DHT22;14054;50.108;8.640;2023-02-03T11:48:38;9.80;99.90
26342;DHT22;14054;50.108;8.640;2023-02-03T11:51:33;9.80;99.90
26342;DHT22;14054;50.108;8.640;2023-02-03T11:57:10;9.70;99.90
26342;DHT22;14054;50.108;8.640;2023-02-03T12:00:01;9.70;99.90
26342;DHT22;14054;50.108;8.640;2023-02-03T12:05:40;9.70;99.90
26342;DHT22;14054;50.108;8.640;2023-02-03T12:08:28;9.70;99.90
26342;DHT22;14054;50.108;8.640;2023-02-03T12:11:18;9.70;99.90
26342;DHT22;14054;50.108;8.640;2023-02-03T12:14:16;9.60;99.90
26342;DHT22;14054;50.108;8.640;2023-02-03T12:22:22;9.50;99.90
26342;DHT22;14054;50.108;8.640;2023-02-03T12:25:22;9.50;99.90
26342;DHT22;14054;50.108;8.640;2023-02-03T12:30:46;9.40;99.90
26342;DHT22;14054;50.108;8.640;2023-02-03T12:33:22;9.50;99.90
26342;DHT22;14054;50.108;8.640;2023-02-03T12:36:08;9.40;99.90
26342;DHT22;14054;50.108;8.640;2023-02-03T12:38:43;9.40;99.90
26342;DHT22;14054;50.108;8.640;2023-02-03T12:41:13;9.30;99.90
26342;DHT22;14054;50.108;8.640;2023-02-03T12:43:44;9.20;99.90
26342;DHT22;14054;50.108;8.640;2023-02-03T12:46:47;9.20;99.90
26342;DHT22;14054;50.108;8.640;2023-02-03T12:49:30;9.20;99.90
26342;DHT22;14054;50.108;8.640;2023-02-03T12:51:59;9.10;99.90
26342;DHT22;14054;50.108;8.640;2023-02-03T12:54:41;9.20;99.90
26342;DHT22;14054;50.108;8.640;2023-02-03T12:57:18;9.10;99.90
26342;DHT22;14054;50.108;8.640;2023-02-03T12:59:58;9.10;99.90
26342;DHT22;14054;50.108;8.640;2023-02-03T13:02:28;9.10;99.90
26342;DHT22;14054;50.108;8.640;2023-02-03T13:05:00;9.10;99.90
26342;DHT22;14054;50.108;8.640;2023-02-03T13:07:47;9.10;99.90
26342;DHT22;14054;50.108;8.640;2023-02-03T13:10:20;9.00;99.90
26342;DHT22;14054;50.108;8.640;2023-02-03T13:12:51;9.00;99.90
26342;DHT22;14054;50.108;8.640;2023-02-03T13:15:36;9.00;99.90
26342;DHT22;14054;50.108;8.640;2023-02-03T13:18:14;9.00;99.90
26342;DHT22;14054;50.108;8.640;2023-02-03T13:20:44;9.00;99.90
26342;DHT22;14054;50.108;8.640;2023-02-03T13:23:13;9.00;99.90
26342;DHT22;14054;50.108;8.640;2023-02-03T13:25:56;8.90;99.90
26342;DHT22;14054;50.108;8.640;2023-02-03T13:36:44;8.90;99.90
26342;DHT22;14054;50.108;8.640;2023-02-03T13:39:34;8.90;99.90
26342;DHT22;14054;50.108;8.640;2023-02-03T13:44:41;8.90;99.90
26342;DHT22;14054;50.108;8.640;2023-02-03T13:47:15;9.00;99.90
26342;DHT22;14054;50.108;8.640;2023-02-03T13:49:43;9.00;99.90
26342;DHT22;14054;50.108;8.640;2023-02-03T13:52:53;9.00;99.90
26342;DHT22;14054;50.108;8.640;2023-02-03T13:55:29;8.90;99.90
26342;DHT22;14054;50.108;8.640;2023-02-03T13:57:57;9.00;99.90
26342;DHT22;14054;50.108;8.640;2023-02-03T14:03:39;8.90;99.90
26342;DHT22;14054;50.108;8.640;2023-02-03T14:06:53;8.90;99.90
26342;DHT22;14054;50.108;8.640;2023-02-03T14:08:58;8.90;99.90
26342;DHT22;14054;50.108;8.640;2023-02-03T14:16:58;8.80;99.90
26342;DHT22;14054;50.108;8.640;2023-02-03T14:21:58;8.80;99.90
26342;DHT22;14054;50.108;8.640;2023-02-03T14:24:37;8.80;99.90
26342;DHT22;14054;50.108;8.640;2023-02-03T14:27:14;8.70;99.90
26342;DHT22;14054;50.108;8.640;2023-02-03T14:29:40;8.70;99.90
26342;DHT22;14054;50.108;8.640;2023-02-03T14:32:10;8.70;99.90
26342;DHT22;14054;50.108;8.640;2023-02-03T14:34:41;8.60;99.90
26342;DHT22;14054;50.108;8.640;2023-02-03T14:42:28;8.60;99.90
26342;DHT22;14054;50.108;8.640;2023-02-03T14:50:27;8.60;99.90
26342;DHT22;14054;50.108;8.640;2023-02-03T14:58:28;8.60;99.90
26342;DHT22;14054;50.108;8.640;2023-02-03T15:00:54;8.60;99.90
26342;DHT22;14054;50.108;8.640;2023-02-03T15:03:22;8.60;99.90
26342;DHT22;14054;50.108;8.640;2023-02-03T15:05:55;8.60;99.90
26342;DHT22;14054;50.108;8.640;2023-02-03T15:08:46;8.60;99.90
26342;DHT22;14054;50.108;8.640;2023-02-03T15:11:30;8.70;99.90
26342;DHT22;14054;50.108;8.640;2023-02-03T15:16:44;8.70;99.90
26342;DHT22;14054;50.108;8.640;2023-02-03T15:19:18;8.70;99.90
26342;DHT22;14054;50.108;8.640;2023-02-03T15:21:44;8.70;99.90
26342;DHT22;14054;50.108;8.640;2023-02-03T15:24:13;8.70;99.90
26342;DHT22;14054;50.108;8.640;2023-02-03T15:26:45;8.70;99.90
26342;DHT22;14054;50.108;8.640;2023-02-03T15:29:21;8.70;99.90
26342;DHT22;14054;50.108;8.640;2023-02-03T15:31:51;8.80;99.90
26342;DHT22;14054;50.108;8.640;2023-02-03T15:34:25;8.70;99.90
26342;DHT22;14054;50.108;8.640;2023-02-03T15:36:55;8.80;99.90
26342;DHT22;14054;50.108;8.640;2023-02-03T15:42:00;8.80;99.90
26342;DHT22;14054;50.108;8.640;2023-02-03T15:44:34;8.80;99.90
26342;DHT22;14054;50.108;8.640;2023-02-03T15:47:05;8.90;99.90
26342;DHT22;14054;50.108;8.640;2023-02-03T15:49:41;8.80;99.90
26342;DHT22;14054;50.108;8.640;2023-02-03T15:52:16;8.90;99.90
26342;DHT22;14054;50.108;8.640;2023-02-03T15:54:46;8.90;99.90
26342;DHT22;14054;50.108;8.640;2023-02-03T15:57:23;8.90;99.90
26342;DHT22;14054;50.108;8.640;2023-02-03T15:59:56;8.90;99.90
26342;DHT22;14054;50.108;8.640;2023-02-03T16:02:29;8.90;99.90
26342;DHT22;14054;50.108;8.640;2023-02-03T16:04:55;8.90;99.90
26342;DHT22;14054;50.108;8.640;2023-02-03T16:07:24;8.90;99.90
26342;DHT22;14054;50.108;8.640;2023-02-03T16:09:55;9.00;99.90
26342;DHT22;14054;50.108;8.640;2023-02-03T16:12:31;9.00;99.90
26342;DHT22;14054;50.108;8.640;2023-02-03T16:15:00;9.00;99.90
26342;DHT22;14054;50.108;8.640;2023-02-03T16:17:33;8.90;99.90
26342;DHT22;14054;50.108;8.640;2023-02-03T16:22:42;8.90;99.90
26342;DHT22;14054;50.108;8.640;2023-02-03T16:25:16;8.90;99.90
26342;DHT22;14054;50.108;8.640;2023-02-03T16:27:55;8.80;99.90
26342;DHT22;14054;50.108;8.640;2023-02-03T16:30:55;8.80;99.90
26342;DHT22;14054;50.108;8.640;2023-02-03T16:33:45;8.80;99.90
26342;DHT22;14054;50.108;8.640;2023-02-03T16:36:29;8.70;99.90
26342;DHT22;14054;50.108;8.640;2023-02-03T16:39:13;8.80;99.90
26342;DHT22;14054;50.108;8.640;2023-02-03T16:41:59;8.80;99.90
26342;DHT22;14054;50.108;8.640;2023-02-03T16:44:44;8.90;99.90
26342;DHT22;14054;50.108;8.640;2023-02-03T16:47:30;8.80;99.90
26342;DHT22;14054;50.108;8.640;2023-02-03T16:50:23;8.80;99.90
26342;DHT22;14054;50.108;8.640;2023-02-03T16:53:15;8.80;99.90
26342;DHT22;14054;50.108;8.640;2023-02-03T16:55:42;8.90;99.90
26342;DHT22;14054;50.108;8.640;2023-02-03T16:58:07;8.90;99.90
26342;DHT22;14054;50.108;8.640;2023-02-03T17:00:35;8.90;99.90
26342;DHT22;14054;50.108;8.640;2023-02-03T17:03:03;8.90;99.90
26342;DHT22;14054;50.108;8.640;2023-02-03T17:05:29;8.90;99.90
26342;DHT22;14054;50.108;8.640;2023-02-03T17:07:55;8.90;99.90
26342;DHT22;14054;50.108;8.640;2023-02-03T17:10:20;8.90;99.90
26342;DHT22;14054;50.108;8.640;2023-02-03T17:12:45;8.90;99.90
26342;DHT22;14054;50.108;8.640;2023-02-03T17:15:11;8.90;99.90
26342;DHT22;14054;50.108;8.640;2023-02-03T17:17:36;8.90;99.90
26342;DHT22;14054;50.108;8.640;2023-02-03T17:20:03;8.90;99.90
26342;DHT22;14054;50.108;8.640;2023-02-03T17:22:29;8.90;99.90
26342;DHT22;14054;50.108;8.640;2023-02-03T17:24:56;8.90;99.90
26342;DHT22;14054;50.108;8.640;2023-02-03T17:27:22;9.00;99.90
26342;DHT22;14054;50.108;8.640;2023-02-03T17:29:47;9.00;99.90
26342;DHT22;14054;50.108;8.640;2023-02-03T17:32:13;9.00;99.90
26342;DHT22;14054;50.108;8.640;2023-02-03T17:34:40;9.00;99.90
26342;DHT22;14054;50.108;8.640;2023-02-03T17:37:06;8.90;99.90
26342;DHT22;14054;50.108;8.640;2023-02-03T17:39:31;8.90;99.90
26342;DHT22;14054;50.108;8.640;2023-02-03T17:41:57;8.90;99.90
26342;DHT22;14054;50.108;8.640;2023-02-03T17:44:23;8.90;99.90
26342;DHT22;14054;50.108;8.640;2023-02-03T17:46:48;8.80;99.90